1I515 / N515QS 7700 Squawk Report (11th of December, 2018)

Aircraft C68A Reg No. N515QS Age N/A
Model 680 N/A engine N/A First flight N/A
Registered 08-16 Rollout N/A Delivered 02-12-16
Construction No. 680A-0053 Line No. N/A Series A
ADSHEX A67571 Airline name NetJets Owner NJI Sales INC
Airfield based Columbus-John Glenn Columbus Int`l~OH~N First tracked 2017-07-20 02:15:00

Flight history for N515QS

Route Flight No Date Playback
???? 1I515 2019-10-15 23:37:00
???? 1I515 2019-10-14 21:35:00
???? 1I515 2019-10-09 20:18:00
???? 1I515 2019-10-07 18:10:00
???? 1I515 2019-10-04 23:32:00
???? 1I515 2019-10-03 18:26:00
???? 1I515 2019-10-03 00:18:00
???? 1I515 2019-10-01 14:49:00
???? 1I515 2019-09-30 06:06:00
???? 1I515 2019-09-28 21:18:00
???? 1I515 2019-09-27 22:30:00
???? 1I515 2019-09-26 21:31:00
KTAD - David Wayne Hooks Field (KDWH) 1I515 2019-09-22 21:53:00
???? 1I515 2019-09-19 23:48:00
???? 1I515 2019-09-18 00:09:00
???? 1I515 2019-09-16 20:14:00
???? 1I515 2019-09-16 03:25:00
???? 1I515 2019-09-15 21:03:00
???? 1I515 2019-09-13 19:04:00
???? 1I515 2019-09-12 23:57:00
Time Lat Lon Altitude Heading Speed Vertical Rate
2018-12-11 19:10:53 GMT 40.003780 -82.898163 0 95 12 0
2018-12-11 19:10:44 GMT 40.003819 -82.898865 0 92 13 0
2018-12-11 19:10:30 GMT 40.003887 -82.900085 0 95 14 0
2018-12-11 19:10:08 GMT 40.003979 -82.901718 0 92 11 0
2018-12-11 19:09:57 GMT 40.004013 -82.902283 0 92 8 0
2018-12-11 19:09:49 GMT 40.004025 -82.902603 0 92 7 0
2018-12-11 19:07:23 GMT 40.001862 -82.883911 675 275 97 -448
2018-12-11 19:07:11 GMT 40.001495 -82.877625 750 274 102 -512
2018-12-11 19:07:01 GMT 40.001129 -82.871307 850 275 99 -512
2018-12-11 19:06:56 GMT 40.000988 -82.868561 900 275 104 -640
2018-12-11 19:06:51 GMT 40.000755 -82.865005 950 276 101 -384
2018-12-11 19:06:48 GMT 40.000626 -82.862976 975 275 104 -640
2018-12-11 19:06:40 GMT 40.000336 -82.857704 1,050 275 107 -832
2018-12-11 19:06:34 GMT 40.000149 -82.854584 1,125 274 107 -832
2018-12-11 19:06:28 GMT 39.999939 -82.851074 1,175 275 106 -640
2018-12-11 19:06:23 GMT 39.999756 -82.847961 1,225 275 107 -512
2018-12-11 19:06:17 GMT 39.999481 -82.843506 1,300 275 111 -704
2018-12-11 19:06:09 GMT 39.999207 -82.838562 1,375 274 112 -640
2018-12-11 19:06:06 GMT 39.999115 -82.836304 1,400 275 107 -576
2018-12-11 19:05:55 GMT 39.998703 -82.829346 1,525 275 108 -896
2018-12-11 19:05:50 GMT 39.998566 -82.825989 1,575 275 110 -960
2018-12-11 19:05:45 GMT 39.998337 -82.822449 1,650 275 111 0
2018-12-11 19:05:37 GMT 39.998055 -82.817001 1,675 275 111 -576
2018-12-11 19:05:34 GMT 39.997925 -82.814514 1,700 275 110 -640
2018-12-11 19:05:28 GMT 39.997696 -82.810486 1,775 275 114 -896
2018-12-11 19:05:23 GMT 39.997559 -82.807861 1,825 274 115 -832
2018-12-11 19:05:16 GMT 39.997215 -82.802208 1,925 275 118 -768
2018-12-11 19:05:13 GMT 39.997124 -82.800774 1,950 274 118 -1024
2018-12-11 19:05:03 GMT 39.996643 -82.793091 2,100 275 124 -832
2018-12-11 19:04:52 GMT 39.996094 -82.784119 2,250 275 132 -768
2018-12-11 19:04:40 GMT 39.995541 -82.775429 2,350 275 144 -512
2018-12-11 19:04:29 GMT 39.994984 -82.765816 2,475 274 146 -960
2018-12-11 19:04:20 GMT 39.994492 -82.754883 2,675 274 149 -832
2018-12-11 19:04:08 GMT 39.993958 -82.745590 2,775 275 147 -640
2018-12-11 19:04:02 GMT 39.993725 -82.741531 2,825 275 150 64
2018-12-11 19:03:56 GMT 39.993301 -82.735657 2,875 275 150 64
2018-12-11 19:03:47 GMT 39.992748 -82.727242 2,875 275 151 -64
2018-12-11 19:03:44 GMT 39.992607 -82.724869 2,875 275 151 -64
2018-12-11 19:03:34 GMT 39.992020 -82.715332 2,875 275 156 0
2018-12-11 19:03:22 GMT 39.991470 -82.704407 2,875 274 156 0
2018-12-11 19:03:11 GMT 39.991028 -82.693970 2,875 270 155 64
2018-12-11 19:03:05 GMT 39.991539 -82.687660 2,875 255 155 0
2018-12-11 19:03:00 GMT 39.992561 -82.683975 2,875 245 155 64
2018-12-11 19:02:53 GMT 39.995041 -82.677429 2,875 244 153 -64
2018-12-11 19:02:49 GMT 39.996277 -82.674255 2,875 244 155 0
2018-12-11 19:02:42 GMT 39.998016 -82.669800 2,875 243 150 0
2018-12-11 19:02:37 GMT 39.999916 -82.665001 2,875 243 151 -64
2018-12-11 19:02:31 GMT 40.001678 -82.660767 2,875 242 151 0
2018-12-11 19:02:21 GMT 40.005020 -82.652588 2,875 242 150 0
2018-12-11 19:02:14 GMT 40.007767 -82.645874 2,875 243 151 0
2018-12-11 19:02:11 GMT 40.008621 -82.643715 2,875 243 151 0
2018-12-11 19:02:02 GMT 40.011883 -82.637474 2,875 222 156 0
2018-12-11 19:01:59 GMT 40.013947 -82.635254 2,875 217 156 128
2018-12-11 19:01:51 GMT 40.019749 -82.632668 2,875 185 164 -128
2018-12-11 19:01:39 GMT 40.028183 -82.633240 2,975 174 171 -960
2018-12-11 19:01:26 GMT 40.038742 -82.634666 3,175 173 173 -1024
2018-12-11 19:01:16 GMT 40.046425 -82.635918 3,325 172 177 -960
2018-12-11 19:01:08 GMT 40.052856 -82.637085 3,450 159 189 -832
2018-12-11 19:01:05 GMT 40.056473 -82.637817 3,525 170 180 -960
2018-12-11 19:01:00 GMT 40.060455 -82.639038 3,600 159 189 -832
2018-12-11 19:00:55 GMT 40.064667 -82.641602 3,675 148 198 -1024
2018-12-11 19:00:49 GMT 40.068909 -82.646278 3,775 138 204 -1024
2018-12-11 19:00:44 GMT 40.071442 -82.650696 3,850 119 214 -384
2018-12-11 19:00:40 GMT 40.073181 -82.655334 3,875 110 219 0
2018-12-11 19:00:33 GMT 40.075146 -82.665001 3,875 100 222 0
2018-12-11 19:00:29 GMT 40.075836 -82.670105 3,875 99 221 -64
2018-12-11 19:00:22 GMT 40.077072 -82.679382 3,875 100 223 -64
2018-12-11 19:00:14 GMT 40.078449 -82.689095 3,875 100 226 0
2018-12-11 19:00:11 GMT 40.078964 -82.692841 3,875 100 226 0
2018-12-11 19:00:08 GMT 40.079773 -82.698364 3,875 100 224 64
2018-12-11 19:00:01 GMT 40.080872 -82.706200 3,875 100 221 64
2018-12-11 18:59:58 GMT 40.081337 -82.709633 3,875 100 220 64
2018-12-11 18:59:50 GMT 40.082829 -82.720375 3,875 100 223 -640
2018-12-11 18:59:46 GMT 40.083618 -82.725891 3,900 100 228 -1024
2018-12-11 18:59:40 GMT 40.084969 -82.734795 4,025 101 233 -896
2018-12-11 18:59:37 GMT 40.085808 -82.740036 4,100 101 233 -896
2018-12-11 18:59:29 GMT 40.087204 -82.748901 4,200 101 234 -1024
2018-12-11 18:59:24 GMT 40.088333 -82.755981 4,275 101 236 -1088
2018-12-11 18:59:19 GMT 40.089661 -82.763794 4,375 102 235 -1024
2018-12-11 18:59:16 GMT 40.090530 -82.768799 4,450 102 234 -960
2018-12-11 18:59:13 GMT 40.090988 -82.771545 4,475 103 234 -960
2018-12-11 18:59:09 GMT 40.092182 -82.778297 4,550 103 234 -960
2018-12-11 18:59:03 GMT 40.093689 -82.786621 4,650 103 234 -1024
2018-12-11 18:58:58 GMT 40.094837 -82.792847 4,725 103 235 -1088
2018-12-11 18:58:54 GMT 40.096161 -82.799866 4,825 103 234 -960
2018-12-11 18:58:51 GMT 40.096619 -82.802368 4,850 103 234 -960
2018-12-11 18:58:47 GMT 40.097630 -82.807701 4,900 103 235 -960
2018-12-11 18:58:43 GMT 40.098656 -82.813255 4,975 103 235 -960
2018-12-11 18:58:40 GMT 40.099678 -82.818497 5,050 103 235 -1088
2018-12-11 18:58:36 GMT 40.100601 -82.823364 5,100 103 236 -1024
2018-12-11 18:58:30 GMT 40.102005 -82.830986 5,200 103 236 -896
2018-12-11 18:58:27 GMT 40.102657 -82.834541 5,225 103 234 -768
2018-12-11 18:58:23 GMT 40.104034 -82.842407 5,300 102 233 -768
2018-12-11 18:58:15 GMT 40.105728 -82.852142 5,400 102 234 -832
2018-12-11 18:58:12 GMT 40.106506 -82.856689 5,425 102 233 -832
2018-12-11 18:58:05 GMT 40.108292 -82.866882 5,550 102 233 -704
2018-12-11 18:58:00 GMT 40.109177 -82.871933 5,575 102 233 -704
2018-12-11 18:57:53 GMT 40.110809 -82.881470 5,675 102 234 -832
2018-12-11 18:57:50 GMT 40.111771 -82.886963 5,725 102 234 -832
2018-12-11 18:57:43 GMT 40.113552 -82.897087 5,825 102 234 -640
2018-12-11 18:57:40 GMT 40.114342 -82.901772 5,850 102 233 -128
2018-12-11 18:57:33 GMT 40.115936 -82.910706 5,875 102 233 0
2018-12-11 18:57:29 GMT 40.116951 -82.916626 5,875 102 233 0
2018-12-11 18:57:21 GMT 40.118546 -82.925842 5,875 102 233 -64
2018-12-11 18:57:18 GMT 40.119465 -82.930923 5,875 102 233 -64
2018-12-11 18:57:10 GMT 40.122025 -82.945465 5,875 102 233 64
2018-12-11 18:57:07 GMT 40.122025 -82.945465 5,875 102 232 64
2018-12-11 18:57:00 GMT 40.123608 -82.954826 5,875 102 232 0
2018-12-11 18:56:56 GMT 40.124588 -82.960449 5,875 102 232 0
2018-12-11 18:56:49 GMT 40.126259 -82.969933 5,875 102 232 0
2018-12-11 18:56:45 GMT 40.127098 -82.974869 5,875 102 232 -64
2018-12-11 18:56:38 GMT 40.129005 -82.985542 5,875 102 232 0
2018-12-11 18:56:34 GMT 40.129990 -82.991211 5,875 102 233 0
2018-12-11 18:56:28 GMT 40.131519 -83.000145 5,875 102 233 0
2018-12-11 18:56:24 GMT 40.132507 -83.005737 5,875 102 233 0
2018-12-11 18:56:16 GMT 40.134129 -83.014946 5,875 102 233 0
2018-12-11 18:56:11 GMT 40.135338 -83.021812 5,875 103 234 -64
2018-12-11 18:56:03 GMT 40.137993 -83.033485 5,875 114 232 64
2018-12-11 18:56:00 GMT 40.139481 -83.037476 5,875 119 231 64
2018-12-11 18:55:53 GMT 40.144463 -83.045654 5,875 137 225 -64
2018-12-11 18:55:48 GMT 40.147064 -83.048584 5,875 140 223 0
2018-12-11 18:55:41 GMT 40.152935 -83.054771 5,875 141 224 0
2018-12-11 18:55:38 GMT 40.156193 -83.058136 5,875 141 223 64
2018-12-11 18:55:34 GMT 40.159405 -83.061508 5,875 141 224 0
2018-12-11 18:55:31 GMT 40.163040 -83.065308 5,875 141 224 -256
2018-12-11 18:55:27 GMT 40.165039 -83.067436 5,875 141 225 -704
2018-12-11 18:55:23 GMT 40.171005 -83.073669 5,975 141 226 -768
2018-12-11 18:55:15 GMT 40.174438 -83.077271 6,025 141 226 -832
2018-12-11 18:55:12 GMT 40.177094 -83.080017 6,075 141 226 -832
2018-12-11 18:55:09 GMT 40.179565 -83.082581 6,125 141 226 -768
2018-12-11 18:55:03 GMT 40.183960 -83.087219 6,175 141 227 -768
2018-12-11 18:54:59 GMT 40.188175 -83.091599 6,250 141 228 -768
2018-12-11 18:54:51 GMT 40.194786 -83.098587 6,350 141 229 -768
2018-12-11 18:54:47 GMT 40.197235 -83.101074 6,400 141 229 -832
2018-12-11 18:54:41 GMT 40.202545 -83.106689 6,475 141 229 -832
2018-12-11 18:54:37 GMT 40.205841 -83.110168 6,525 141 229 -832
2018-12-11 18:54:27 GMT 40.214996 -83.119690 6,675 141 229 -768
2018-12-11 18:54:19 GMT 40.221367 -83.126366 6,775 141 230 -832
2018-12-11 18:54:16 GMT 40.223969 -83.129089 6,825 141 229 -832
2018-12-11 18:54:08 GMT 40.233471 -83.139038 6,975 141 228 -768
2018-12-11 18:53:57 GMT 40.241821 -83.147827 7,100 141 228 -832
2018-12-11 18:53:54 GMT 40.241821 -83.147827 7,125 141 228 -768
2018-12-11 18:53:47 GMT 40.247910 -83.154175 7,225 141 228 -832
2018-12-11 18:53:43 GMT 40.251625 -83.158073 7,275 141 228 -832
2018-12-11 18:53:35 GMT 40.256607 -83.163322 7,350 141 229 -768
2018-12-11 18:53:32 GMT 40.259308 -83.166138 7,400 141 229 -768
2018-12-11 18:53:24 GMT 40.265919 -83.173058 7,500 141 230 -768
2018-12-11 18:53:21 GMT 40.268894 -83.176178 7,550 141 230 -768
2018-12-11 18:53:11 GMT 40.277695 -83.185417 7,675 141 231 -832
2018-12-11 18:53:04 GMT 40.283798 -83.191833 7,800 141 231 -832
2018-12-11 18:52:59 GMT 40.287323 -83.195496 7,850 141 231 -768
2018-12-11 18:52:51 GMT 40.294128 -83.202644 7,950 141 233 -832
2018-12-11 18:52:47 GMT 40.297073 -83.205750 8,000 141 233 -768
2018-12-11 18:52:39 GMT 40.303802 -83.212830 8,100 141 233 -832
2018-12-11 18:52:36 GMT 40.305904 -83.215065 8,150 141 233 -768
2018-12-11 18:52:30 GMT 40.312794 -83.222305 8,250 141 233 -832
2018-12-11 18:52:26 GMT 40.315430 -83.225037 8,300 141 234 -832
2018-12-11 18:52:18 GMT 40.321453 -83.231361 8,375 141 234 -768
2018-12-11 18:52:14 GMT 40.325272 -83.235413 8,450 141 236 -768
2018-12-11 18:52:08 GMT 40.330399 -83.240784 8,525 141 236 -896
2018-12-11 18:52:03 GMT 40.334976 -83.245605 8,600 141 236 -832
2018-12-11 18:51:57 GMT 40.340286 -83.251160 8,675 141 236 -768
2018-12-11 18:51:51 GMT 40.344776 -83.255959 8,750 141 236 -832
2018-12-11 18:51:47 GMT 40.349670 -83.261108 8,825 140 238 -832
2018-12-11 18:51:40 GMT 40.354660 -83.266357 8,900 141 240 -832
2018-12-11 18:51:37 GMT 40.357670 -83.269562 8,950 141 240 -832
2018-12-11 18:51:34 GMT 40.359146 -83.271118 8,975 141 240 -768
2018-12-11 18:51:28 GMT 40.364548 -83.276794 9,050 141 241 -768
2018-12-11 18:51:25 GMT 40.367958 -83.280426 9,100 141 243 -768
2018-12-11 18:51:15 GMT 40.378990 -83.292099 9,275 141 243 -832
2018-12-11 18:51:05 GMT 40.384689 -83.298096 9,350 140 244 -768
2018-12-11 18:51:02 GMT 40.387024 -83.300537 9,400 140 244 -832
2018-12-11 18:50:53 GMT 40.396076 -83.310135 9,525 141 243 -768
2018-12-11 18:50:42 GMT 40.405151 -83.319702 9,650 141 243 -832
2018-12-11 18:50:32 GMT 40.414604 -83.329613 9,800 141 245 -768
2018-12-11 18:50:22 GMT 40.423031 -83.338539 9,875 141 244 0
2018-12-11 18:50:08 GMT 40.434669 -83.350838 9,875 140 244 0
2018-12-11 18:50:00 GMT 40.442955 -83.359573 9,875 140 244 0
2018-12-11 18:49:47 GMT 40.453384 -83.370560 9,875 140 244 0
2018-12-11 18:49:36 GMT 40.462551 -83.380302 9,875 141 245 0
2018-12-11 18:49:24 GMT 40.473354 -83.391724 9,875 141 246 0
2018-12-11 18:49:14 GMT 40.482834 -83.401733 9,875 140 245 0
2018-12-11 18:49:07 GMT 40.490112 -83.409424 9,875 140 245 64
2018-12-11 18:49:03 GMT 40.493046 -83.412514 9,875 140 245 0
2018-12-11 18:48:56 GMT 40.498863 -83.418755 9,875 140 245 -64
2018-12-11 18:48:50 GMT 40.503571 -83.423706 9,875 141 246 0
2018-12-11 18:48:40 GMT 40.513870 -83.434570 9,875 141 245 64
2018-12-11 18:48:28 GMT 40.523346 -83.444702 9,900 140 245 -768
2018-12-11 18:48:16 GMT 40.533405 -83.455330 10,050 140 247 -832
2018-12-11 18:48:05 GMT 40.543442 -83.466064 10,200 141 248 -768
2018-12-11 18:47:54 GMT 40.553192 -83.476372 10,350 141 249 -768
2018-12-11 18:47:44 GMT 40.562988 -83.486755 10,500 141 249 -832
2018-12-11 18:47:32 GMT 40.573349 -83.497780 10,650 140 250 -576
2018-12-11 18:47:25 GMT 40.579788 -83.504639 10,700 140 253 192
2018-12-11 18:47:20 GMT 40.584568 -83.509766 10,775 140 252 -640
2018-12-11 18:47:09 GMT 40.594345 -83.520142 10,875 140 253 -64
2018-12-11 18:46:59 GMT 40.604259 -83.530739 10,850 140 253 0
2018-12-11 18:46:47 GMT 40.614826 -83.541977 10,850 140 253 0
2018-12-11 18:46:36 GMT 40.624420 -83.552185 10,850 140 253 -64
2018-12-11 18:46:25 GMT 40.634563 -83.563011 10,850 140 253 0
2018-12-11 18:46:13 GMT 40.644943 -83.574059 10,850 140 253 0
2018-12-11 18:46:01 GMT 40.655731 -83.585571 10,850 140 250 0
2018-12-11 18:45:51 GMT 40.665253 -83.595703 10,850 140 245 0
2018-12-11 18:45:39 GMT 40.675762 -83.607018 10,850 140 238 -64
2018-12-11 18:45:27 GMT 40.686516 -83.618813 10,825 140 239 0
2018-12-11 18:45:17 GMT 40.695084 -83.628242 10,925 140 252 -1728
2018-12-11 18:45:05 GMT 40.705444 -83.639587 11,275 140 254 -1984
2018-12-11 18:44:54 GMT 40.715656 -83.650780 11,675 140 255 -1984
2018-12-11 18:44:41 GMT 40.728321 -83.664322 12,125 141 256 -1984
2018-12-11 18:44:30 GMT 40.737350 -83.673500 12,450 143 256 -1984
2018-12-11 18:44:19 GMT 40.749550 -83.684425 12,850 146 256 -2048
2018-12-11 18:44:10 GMT 40.758068 -83.691910 13,150 146 259 -1984
2018-12-11 18:43:56 GMT 40.771473 -83.703651 13,575 146 260 -1984
2018-12-11 18:43:45 GMT 40.783112 -83.713882 13,975 146 261 -1984
2018-12-11 18:43:33 GMT 40.794479 -83.724670 15,200 138 267 -1984
2018-12-11 18:43:25 GMT 40.802628 -83.734192 14,650 137 268 -2048
2018-12-11 18:43:22 GMT 40.805328 -83.737488 14,750 137 268 -2048
2018-12-11 18:43:14 GMT 40.812698 -83.746216 15,025 139 267 -1984
2018-12-11 18:43:10 GMT 40.815491 -83.749451 15,125 138 267 -2048
2018-12-11 18:43:02 GMT 40.823845 -83.758331 15,400 152 261 -1920
2018-12-11 18:42:58 GMT 40.838745 -83.765442 15,875 182 240 -2176
2018-12-11 18:42:48 GMT 40.838745 -83.765442 15,850 176 244 -2048
2018-12-11 18:42:40 GMT 40.847355 -83.765259 16,125 185 237 -2048
2018-12-11 18:42:36 GMT 40.852478 -83.764771 16,275 185 237 -2048
2018-12-11 18:42:27 GMT 40.861496 -83.763855 16,575 184 237 -2048
2018-12-11 18:42:23 GMT 40.865250 -83.763550 16,700 184 237 -1856
2018-12-11 18:42:17 GMT 40.878342 -83.762512 16,975 199 276 -3584
2018-12-11 18:42:12 GMT 40.878342 -83.762512 16,950 184 244 -1280
2018-12-11 18:42:07 GMT 40.885208 -83.762024 17,100 184 250 -1984
2018-12-11 18:42:01 GMT 40.890289 -83.761658 17,250 184 250 -1984
2018-12-11 18:41:54 GMT 40.898895 -83.760925 17,400 184 252 -1792
2018-12-11 18:41:47 GMT 40.907501 -83.760262 17,700 184 256 -2304
2018-12-11 18:41:43 GMT 40.911621 -83.759888 17,825 184 259 -2432
2018-12-11 18:41:36 GMT 40.920181 -83.759094 18,125 185 268 -1856
2018-12-11 18:41:33 GMT 40.925282 -83.758583 18,250 185 271 -1856
2018-12-11 18:41:25 GMT 40.934315 -83.757271 18,475 190 271 -2112
2018-12-11 18:41:22 GMT 40.939316 -83.755859 18,625 197 268 -2752
2018-12-11 18:41:16 GMT 40.945393 -83.753525 18,975 199 267 -3072
2018-12-11 18:41:11 GMT 40.952423 -83.750465 19,150 200 265 -3072
2018-12-11 18:41:05 GMT 40.958359 -83.747742 19,425 200 265 -2816
2018-12-11 18:40:58 GMT 40.965691 -83.744408 19,700 200 266 -2368
2018-12-11 18:40:54 GMT 40.971275 -83.741791 19,900 199 269 -2240
2018-12-11 18:40:49 GMT 40.978165 -83.738731 20,125 199 272 -2432
2018-12-11 18:40:42 GMT 40.985962 -83.735291 20,375 199 274 -2368
2018-12-11 18:40:37 GMT 40.991592 -83.732910 20,550 198 278 -2496
2018-12-11 18:40:31 GMT 41.006283 -83.726685 20,925 199 281 -3200
2018-12-11 18:40:25 GMT 41.006283 -83.726685 21,075 198 283 -2944
2018-12-11 18:40:22 GMT 41.015671 -83.722656 21,400 198 283 -3200
2018-12-11 18:40:17 GMT 41.015671 -83.722656 21,800 198 283 -3200
2018-12-11 18:40:12 GMT 41.021275 -83.720253 21,600 199 283 -3264
2018-12-11 18:40:09 GMT 41.026108 -83.718140 21,900 199 282 -3136
2018-12-11 18:40:04 GMT 41.033020 -83.715149 22,175 199 281 -3136
2018-12-11 18:39:57 GMT 41.040665 -83.711792 22,525 199 278 -3648
2018-12-11 18:39:51 GMT 41.048553 -83.708328 22,925 199 274 -3584
2018-12-11 18:39:45 GMT 41.054947 -83.705505 23,225 199 273 -3392
2018-12-11 18:39:40 GMT 41.061127 -83.702698 23,525 199 269 -3136
2018-12-11 18:39:34 GMT 41.067444 -83.699951 23,775 199 263 -2560
2018-12-11 18:39:31 GMT 41.072620 -83.697655 23,950 199 262 -576
2018-12-11 18:39:26 GMT 41.076645 -83.695923 23,925 199 269 512
2018-12-11 18:39:23 GMT 41.080723 -83.694160 23,925 199 266 832
2018-12-11 18:39:19 GMT 41.086212 -83.691788 23,875 199 275 128
2018-12-11 18:39:13 GMT 41.097290 -83.687073 24,275 198 296 -1664
2018-12-11 18:39:10 GMT 41.102646 -83.684860 23,950 198 295 -1600
2018-12-11 18:39:06 GMT 41.102646 -83.684860 24,650 197 302 -2624
2018-12-11 18:38:59 GMT 41.112236 -83.680992 24,275 197 304 -2944
2018-12-11 18:38:56 GMT 41.116150 -83.679443 24,425 197 304 -2944
2018-12-11 18:38:53 GMT 41.122925 -83.676758 24,650 197 307 -2944
2018-12-11 18:38:50 GMT 41.123749 -83.676392 24,675 197 308 -3072
2018-12-11 18:38:45 GMT 41.130844 -83.673584 24,925 198 309 -3072
2018-12-11 18:38:39 GMT 41.139633 -83.669922 25,500 199 311 -3136
2018-12-11 18:38:34 GMT 41.145950 -83.667175 25,925 199 311 -3136
2018-12-11 18:38:26 GMT 41.156616 -83.662354 26,050 200 312 -3008
2018-12-11 18:38:23 GMT 41.161396 -83.660080 26,100 200 315 -3072
2018-12-11 18:38:16 GMT 41.169636 -83.656204 26,425 200 316 -3200
2018-12-11 18:38:12 GMT 41.176666 -83.652954 27,275 200 319 -3200
2018-12-11 18:38:04 GMT 41.186691 -83.648254 27,100 200 320 -3072
2018-12-11 18:38:01 GMT 41.192871 -83.645386 27,300 200 321 -3136
2018-12-11 18:37:55 GMT 41.200592 -83.641853 27,600 199 322 -3392
2018-12-11 18:37:48 GMT 41.209534 -83.637817 27,975 199 323 -3392
2018-12-11 18:37:44 GMT 41.224319 -83.631226 28,375 199 324 -3264
2018-12-11 18:37:40 GMT 41.224319 -83.631226 28,550 199 325 -3456
2018-12-11 18:37:36 GMT 41.228302 -83.629456 28,700 199 325 -3392
2018-12-11 18:37:33 GMT 41.231548 -83.627930 28,825 199 325 -3328
2018-12-11 18:37:29 GMT 41.243233 -83.622627 29,200 200 325 -3136
2018-12-11 18:37:25 GMT 41.243233 -83.622627 29,275 200 325 -3136
2018-12-11 18:37:21 GMT 41.248764 -83.620056 29,475 200 325 -2944
2018-12-11 18:37:15 GMT 41.257324 -83.616028 29,900 200 330 -2688
2018-12-11 18:37:09 GMT 41.270187 -83.609863 30,425 200 332 -2688
2018-12-11 18:37:02 GMT 41.274097 -83.608017 31,600 200 331 -2752
2018-12-11 18:36:57 GMT 41.285412 -83.602585 30,675 200 335 -3136
2018-12-11 18:36:53 GMT 41.289227 -83.600777 30,800 200 335 -3200
2018-12-11 18:36:50 GMT 41.297703 -83.596779 30,900 200 339 -1664
2018-12-11 18:36:47 GMT 41.297703 -83.596779 31,125 200 335 -3520
2018-12-11 18:36:43 GMT 41.303242 -83.594093 31,350 200 335 -3392
2018-12-11 18:36:39 GMT 41.308960 -83.591431 31,975 200 339 -1664
2018-12-11 18:36:35 GMT 41.314224 -83.588867 31,750 200 336 -2432
2018-12-11 18:36:32 GMT 41.318462 -83.586853 31,850 200 337 -1984
2018-12-11 18:36:28 GMT 41.325260 -83.583672 32,100 200 341 -1216
2018-12-11 18:36:24 GMT 41.334522 -83.579239 32,175 200 353 -768
2018-12-11 18:36:18 GMT 41.339264 -83.577026 32,200 200 352 -768
2018-12-11 18:36:15 GMT 41.344067 -83.574806 32,225 200 356 -1152
2018-12-11 18:36:12 GMT 41.350304 -83.571877 32,375 199 367 -2688
2018-12-11 18:36:08 GMT 41.356796 -83.568848 32,475 199 363 -3008
2018-12-11 18:36:04 GMT 41.361431 -83.566757 32,600 199 364 -3008
2018-12-11 18:36:01 GMT 41.367004 -83.564270 32,825 199 365 -2688
2018-12-11 18:35:58 GMT 41.372452 -83.561768 32,925 199 366 -2688
2018-12-11 18:35:53 GMT 41.378700 -83.559013 33,100 199 366 -2752
2018-12-11 18:35:49 GMT 41.386429 -83.555519 33,450 199 368 -2560
2018-12-11 18:35:46 GMT 41.389526 -83.554146 33,500 199 369 -2624
2018-12-11 18:35:43 GMT 41.395508 -83.551537 33,575 199 370 -2624
2018-12-11 18:35:37 GMT 41.405285 -83.547318 33,825 198 371 -2624
2018-12-11 18:35:33 GMT 41.412220 -83.544510 34,000 198 373 -2432
2018-12-11 18:35:30 GMT 41.418179 -83.542084 34,200 197 374 -2112
2018-12-11 18:35:25 GMT 41.426140 -83.538887 34,325 197 376 -1984
2018-12-11 18:35:22 GMT 41.429993 -83.537354 34,675 197 380 -2944
2018-12-11 18:35:19 GMT 41.435715 -83.535110 34,550 198 381 -3392
2018-12-11 18:35:12 GMT 41.451370 -83.528671 35,000 198 380 -3136
2018-12-11 18:35:09 GMT 41.453045 -83.527969 35,050 198 379 -3136
2018-12-11 18:35:05 GMT 41.460075 -83.525032 35,250 198 379 -2880
2018-12-11 18:35:01 GMT 41.465057 -83.522858 35,575 199 379 -2496
2018-12-11 18:34:58 GMT 41.478607 -83.516945 35,625 199 381 -1792
2018-12-11 18:34:54 GMT 41.478607 -83.516945 35,750 199 381 -1792
2018-12-11 18:34:51 GMT 41.486618 -83.513382 35,775 199 382 -1728
2018-12-11 18:34:48 GMT 41.488472 -83.512512 35,925 199 388 -960
2018-12-11 18:34:42 GMT 41.501495 -83.506645 36,125 200 389 -1024
2018-12-11 18:34:39 GMT 41.501495 -83.506645 36,175 200 389 -1024
2018-12-11 18:34:36 GMT 41.506943 -83.504143 36,150 200 389 -1024
2018-12-11 18:34:31 GMT 41.521057 -83.497498 36,250 200 391 -1344
2018-12-11 18:34:27 GMT 41.524502 -83.495834 36,400 200 392 -2112
2018-12-11 18:34:19 GMT 41.538025 -83.489479 36,775 200 392 -2944
2018-12-11 18:34:15 GMT 41.542511 -83.487480 36,825 200 391 -2944
2018-12-11 18:34:09 GMT 41.557415 -83.480698 37,200 199 389 -1920
2018-12-11 18:34:06 GMT 41.560162 -83.479485 37,250 199 389 -1792
2018-12-11 18:34:00 GMT 41.570080 -83.475082 37,500 199 391 -832
2018-12-11 18:33:57 GMT 41.573318 -83.473625 37,500 199 391 -832
2018-12-11 18:33:54 GMT 41.579342 -83.470924 37,500 199 392 -512
2018-12-11 18:33:47 GMT 41.591217 -83.465569 37,525 199 397 448
2018-12-11 18:33:44 GMT 41.598175 -83.462448 37,550 199 396 320
2018-12-11 18:33:39 GMT 41.605968 -83.458855 37,500 199 398 960
2018-12-11 18:33:36 GMT 41.611038 -83.456581 37,375 199 398 1088
2018-12-11 18:33:33 GMT 41.617470 -83.453621 37,350 199 399 640
2018-12-11 18:33:27 GMT 41.631107 -83.447487 37,400 199 398 1024
2018-12-11 18:33:24 GMT 41.633202 -83.446526 37,300 199 398 1088
2018-12-11 18:33:21 GMT 41.637543 -83.444534 37,200 199 398 1152
2018-12-11 18:33:17 GMT 41.642761 -83.442162 37,150 199 398 1152
2018-12-11 18:33:13 GMT 41.650452 -83.438728 37,125 199 398 1152
2018-12-11 18:33:10 GMT 41.657597 -83.435478 37,050 199 398 1088
2018-12-11 18:33:07 GMT 41.661621 -83.433670 36,925 199 398 1088
2018-12-11 18:33:02 GMT 41.669632 -83.429993 36,925 199 398 1088
2018-12-11 18:32:58 GMT 41.679657 -83.425369 36,825 200 397 1088
2018-12-11 18:32:55 GMT 41.683136 -83.423805 36,800 200 397 1152
2018-12-11 18:32:52 GMT 41.687481 -83.421806 36,750 199 397 1280
2018-12-11 18:32:45 GMT 41.701168 -83.415871 36,575 197 401 1280
2018-12-11 18:32:41 GMT 41.705826 -83.414078 36,500 196 402 1280
2018-12-11 18:32:35 GMT 41.718979 -83.409515 36,350 194 404 1280
2018-12-11 18:32:31 GMT 41.725002 -83.407692 36,300 193 406 1280
2018-12-11 18:32:24 GMT 41.740086 -83.403473 36,100 192 406 1536
2018-12-11 18:32:20 GMT 41.744511 -83.402260 36,025 192 406 1472
2018-12-11 18:32:13 GMT 41.763885 -83.396904 35,675 192 407 1664
2018-12-11 18:32:03 GMT 41.775696 -83.393661 35,450 192 407 1664
2018-12-11 18:32:00 GMT 41.783798 -83.391411 35,450 192 408 1664
2018-12-11 18:31:54 GMT 41.800976 -83.386612 35,200 192 408 1664
2018-12-11 18:31:49 GMT 41.803757 -83.385857 35,150 192 409 1664
2018-12-11 18:31:42 GMT 41.819366 -83.381546 34,925 192 409 1664
2018-12-11 18:31:38 GMT 41.823231 -83.380486 34,875 192 410 1664
2018-12-11 18:31:33 GMT 41.839050 -83.376053 34,600 192 410 1664
2018-12-11 18:31:28 GMT 41.842594 -83.375114 34,575 192 410 1664
2018-12-11 18:31:22 GMT 41.852829 -83.372246 34,400 192 411 1728
2018-12-11 18:31:18 GMT 41.866383 -83.368469 34,200 192 411 1664
2018-12-11 18:31:12 GMT 41.872715 -83.366753 34,100 192 411 1664
2018-12-11 18:31:07 GMT 41.882950 -83.363884 33,950 192 411 1664
2018-12-11 18:31:00 GMT 41.893944 -83.360809 33,725 192 411 1664
2018-12-11 18:30:57 GMT 41.898972 -83.359451 33,675 192 411 1664
2018-12-11 18:30:54 GMT 41.906799 -83.357269 33,575 192 411 1728
2018-12-11 18:30:49 GMT 41.918194 -83.354103 33,225 192 411 1536
2018-12-11 18:30:46 GMT 41.920990 -83.353333 33,350 192 411 1664
2018-12-11 18:30:43 GMT 41.926208 -83.351837 33,250 192 411 1664
2018-12-11 18:30:40 GMT 41.932159 -83.350212 33,200 192 411 1664
2018-12-11 18:30:34 GMT 41.942776 -83.347267 33,025 192 411 1664
2018-12-11 18:30:29 GMT 41.951340 -83.344841 32,750 192 410 1536
2018-12-11 18:30:24 GMT 41.960651 -83.342285 32,775 192 411 1536
2018-12-11 18:30:18 GMT 41.971985 -83.339104 32,650 192 410 1472
2018-12-11 18:30:15 GMT 41.978714 -83.337227 32,500 192 409 1472
2018-12-11 18:30:07 GMT 41.994278 -83.332855 32,325 192 408 1472
2018-12-11 18:30:02 GMT 42.003338 -83.330338 32,200 192 407 1472
2018-12-11 18:29:57 GMT 42.012138 -83.327911 31,950 192 405 1472
2018-12-11 18:29:51 GMT 42.020416 -83.325554 31,950 192 404 1920
2018-12-11 18:29:46 GMT 42.031769 -83.322433 31,750 192 404 1856
2018-12-11 18:29:42 GMT 42.039093 -83.320374 31,625 192 403 1856
2018-12-11 18:29:35 GMT 42.052963 -83.316505 30,900 192 401 1856
2018-12-11 18:29:31 GMT 42.059555 -83.314629 31,275 192 403 1920
2018-12-11 18:29:24 GMT 42.072796 -83.310921 31,050 192 402 1920
2018-12-11 18:29:20 GMT 42.078289 -83.309387 30,950 192 402 1920
2018-12-11 18:29:12 GMT 42.091553 -83.305702 30,625 192 401 1856
2018-12-11 18:29:09 GMT 42.098099 -83.303833 30,600 192 401 1856
2018-12-11 18:29:02 GMT 42.112083 -83.299934 30,375 192 400 1856
2018-12-11 18:28:59 GMT 42.117325 -83.298401 30,275 192 400 1856
2018-12-11 18:28:53 GMT 42.127121 -83.295654 29,875 192 399 2048
2018-12-11 18:28:50 GMT 42.133453 -83.293869 29,975 192 399 2112
2018-12-11 18:28:47 GMT 42.139225 -83.292274 29,875 192 399 2112
2018-12-11 18:28:43 GMT 42.151703 -83.288788 29,700 192 399 2048
2018-12-11 18:28:38 GMT 42.154400 -83.287994 29,475 192 398 2048
2018-12-11 18:28:30 GMT 42.170471 -83.283485 29,250 192 398 2048
2018-12-11 18:28:26 GMT 42.175873 -83.281921 29,200 192 398 2048
2018-12-11 18:28:19 GMT 42.189037 -83.278282 28,925 192 398 2496
2018-12-11 18:28:14 GMT 42.197525 -83.275871 28,725 192 399 2496
2018-12-11 18:28:09 GMT 42.208374 -83.272812 28,425 192 399 2432
2018-12-11 18:28:04 GMT 42.216503 -83.270554 28,275 192 400 2432
2018-12-11 18:27:58 GMT 42.227188 -83.267563 28,000 192 400 2496
2018-12-11 18:27:53 GMT 42.236797 -83.264809 27,800 192 400 2432
2018-12-11 18:27:48 GMT 42.245876 -83.262253 27,575 192 400 2496
2018-12-11 18:27:44 GMT 42.252914 -83.260323 27,300 192 401 2432
2018-12-11 18:27:36 GMT 42.265800 -83.256691 27,125 192 401 2496
2018-12-11 18:27:32 GMT 42.274181 -83.254333 26,800 192 401 2496
2018-12-11 18:27:28 GMT 42.282188 -83.252098 26,675 192 401 2496
2018-12-11 18:27:24 GMT 42.288334 -83.250366 26,600 192 401 2496
2018-12-11 18:27:20 GMT 42.296711 -83.248009 26,425 192 402 2496
2018-12-11 18:27:16 GMT 42.303085 -83.246216 26,275 192 402 2496
2018-12-11 18:27:13 GMT 42.308167 -83.244781 26,050 192 402 2496
2018-12-11 18:27:09 GMT 42.316730 -83.242386 25,800 192 402 2496
2018-12-11 18:27:06 GMT 42.322403 -83.240784 25,675 192 402 2432
2018-12-11 18:27:01 GMT 42.331146 -83.238350 25,625 192 402 2496
2018-12-11 18:26:55 GMT 42.340622 -83.235664 25,300 192 402 2496
2018-12-11 18:26:49 GMT 42.351929 -83.232483 25,150 192 402 2496
2018-12-11 18:26:46 GMT 42.363922 -83.229111 24,875 192 401 2432
2018-12-11 18:26:37 GMT 42.376083 -83.225716 24,600 192 401 2496
2018-12-11 18:26:34 GMT 42.380833 -83.224373 24,500 192 401 2496
2018-12-11 18:26:27 GMT 42.392258 -83.221123 24,325 192 400 2496
2018-12-11 18:26:24 GMT 42.399685 -83.219009 24,050 192 399 2496
2018-12-11 18:26:17 GMT 42.411072 -83.215820 23,800 192 399 2496
2018-12-11 18:26:12 GMT 42.420502 -83.213196 23,575 192 398 2496
2018-12-11 18:26:06 GMT 42.430573 -83.210327 23,425 192 397 2496
2018-12-11 18:26:02 GMT 42.439346 -83.207832 23,075 192 396 2496
2018-12-11 18:25:55 GMT 42.448471 -83.205269 22,950 192 395 2496
2018-12-11 18:25:52 GMT 42.456619 -83.202972 22,750 192 394 2496
2018-12-11 18:25:44 GMT 42.468201 -83.199654 22,475 192 393 2496
2018-12-11 18:25:41 GMT 42.476395 -83.197342 22,275 192 393 2496
2018-12-11 18:25:37 GMT 42.481705 -83.195839 22,250 192 392 2496
2018-12-11 18:25:34 GMT 42.487202 -83.194290 22,025 192 391 2496
2018-12-11 18:25:30 GMT 42.494278 -83.192245 21,850 192 389 2432
2018-12-11 18:25:27 GMT 42.500839 -83.190414 21,700 192 389 2432
2018-12-11 18:25:24 GMT 42.505592 -83.189049 21,575 192 388 2496
2018-12-11 18:25:20 GMT 42.512787 -83.186981 21,275 192 386 2496
2018-12-11 18:25:14 GMT 42.522770 -83.184135 21,175 192 385 2496
2018-12-11 18:25:08 GMT 42.531647 -83.181610 20,600 192 382 2496
2018-12-11 18:25:03 GMT 42.540985 -83.178925 20,750 192 381 2752
2018-12-11 18:24:56 GMT 42.555084 -83.174934 20,325 192 379 3200
2018-12-11 18:24:53 GMT 42.559731 -83.173592 20,200 192 378 3200
2018-12-11 18:24:47 GMT 42.568951 -83.170975 19,850 192 377 3200
2018-12-11 18:24:41 GMT 42.578339 -83.168251 19,600 192 377 3136
2018-12-11 18:24:34 GMT 42.591660 -83.164444 19,225 192 376 3200
2018-12-11 18:24:31 GMT 42.597298 -83.162796 19,025 193 376 3136
2018-12-11 18:24:23 GMT 42.609009 -83.159386 18,650 193 374 3200
2018-12-11 18:24:19 GMT 42.616745 -83.157143 18,425 193 374 3200
2018-12-11 18:24:12 GMT 42.630074 -83.153282 17,975 193 372 3200
2018-12-11 18:24:09 GMT 42.633469 -83.152321 17,875 193 372 3200
2018-12-11 18:24:03 GMT 42.644222 -83.149193 17,525 192 371 3008
2018-12-11 18:23:59 GMT 42.651764 -83.147026 17,300 192 369 3008
2018-12-11 18:23:51 GMT 42.665131 -83.143349 17,025 192 368 2944
2018-12-11 18:23:46 GMT 42.673141 -83.141350 16,700 190 367 3008
2018-12-11 18:23:43 GMT 42.678349 -83.140190 16,525 188 368 3008
2018-12-11 18:23:35 GMT 42.691753 -83.139168 16,225 181 375 3200
2018-12-11 18:23:29 GMT 42.702438 -83.140724 15,800 172 381 3136
2018-12-11 18:23:26 GMT 42.706791 -83.141975 15,675 165 386 3200
2018-12-11 18:23:20 GMT 42.716583 -83.146156 15,400 159 391 3136
2018-12-11 18:23:15 GMT 42.724945 -83.151558 14,800 134 398 3136
2018-12-11 18:23:11 GMT 42.731918 -83.157639 14,900 143 398 2752
2018-12-11 18:23:04 GMT 42.741028 -83.168503 14,575 133 398 3392
2018-12-11 18:23:00 GMT 42.746796 -83.177612 14,275 127 397 3840
2018-12-11 18:22:53 GMT 42.752506 -83.189438 13,925 119 395 3648
2018-12-11 18:22:50 GMT 42.755814 -83.198586 13,700 112 393 3328
2018-12-11 18:22:44 GMT 42.759254 -83.212814 13,375 103 388 3072
2018-12-11 18:22:38 GMT 42.760986 -83.228302 13,025 94 380 3328
2018-12-11 18:22:33 GMT 42.761070 -83.239319 12,750 82 368 3520
2018-12-11 18:22:26 GMT 42.759796 -83.252831 12,400 78 363 3328
2018-12-11 18:22:23 GMT 42.758137 -83.261360 12,200 71 354 3328
2018-12-11 18:22:18 GMT 42.755447 -83.271622 11,850 68 350 3328
2018-12-11 18:22:12 GMT 42.751991 -83.283714 11,600 68 348 3456
2018-12-11 18:22:07 GMT 42.749432 -83.292656 11,175 68 342 3456
2018-12-11 18:22:01 GMT 42.745651 -83.306015 10,950 68 336 3456
2018-12-11 18:21:54 GMT 42.741898 -83.319252 10,550 68 328 3456
2018-12-11 18:21:50 GMT 42.739792 -83.326492 10,350 68 323 3520
2018-12-11 18:21:46 GMT 42.737320 -83.335167 10,050 68 318 3840
2018-12-11 18:21:43 GMT 42.735931 -83.340179 9,875 68 314 4032
2018-12-11 18:21:39 GMT 42.734161 -83.346375 9,650 68 310 3904
2018-12-11 18:21:34 GMT 42.728714 -83.365257 8,950 68 303 4032
2018-12-11 18:21:29 GMT 42.728714 -83.365257 8,950 68 300 4032
2018-12-11 18:21:23 GMT 42.726250 -83.373772 8,625 68 296 4032
2018-12-11 18:21:17 GMT 42.723358 -83.383919 8,250 69 290 3904
2018-12-11 18:21:13 GMT 42.721176 -83.391533 7,950 68 287 3200
2018-12-11 18:21:08 GMT 42.718475 -83.401237 7,650 69 281 3008
2018-12-11 18:21:03 GMT 42.716125 -83.409576 7,400 69 274 3072
2018-12-11 18:20:57 GMT 42.713680 -83.418228 7,125 68 261 3008
2018-12-11 18:20:52 GMT 42.711548 -83.425621 6,850 68 253 3008
2018-12-11 18:20:46 GMT 42.709076 -83.434044 6,550 68 243 3072
2018-12-11 18:20:42 GMT 42.707165 -83.440590 6,325 68 235 3008
2018-12-11 18:20:36 GMT 42.704727 -83.448898 6,025 68 232 3008
2018-12-11 18:20:30 GMT 42.703033 -83.454895 4,250 20 196 2176
2018-12-11 18:20:24 GMT 42.700333 -83.463943 5,450 67 226 3008
2018-12-11 18:20:20 GMT 42.698822 -83.468941 5,350 67 224 3008
2018-12-11 18:20:14 GMT 42.694565 -83.480675 4,800 57 214 3072
2018-12-11 18:20:08 GMT 42.693382 -83.483002 4,675 52 211 2944
2018-12-11 18:20:03 GMT 42.689983 -83.487602 4,225 33 202 2560
2018-12-11 18:19:59 GMT 42.685913 -83.490913 3,975 20 196 2176
2018-12-11 18:19:51 GMT 42.678394 -83.493095 3,925 0 187 2112
2018-12-11 18:19:46 GMT 42.674667 -83.492386 3,750 347 182 2112
2018-12-11 18:19:43 GMT 42.672108 -83.491241 3,650 338 180 2176
2018-12-11 18:19:39 GMT 42.669781 -83.489517 3,525 327 178 2112
2018-12-11 18:19:36 GMT 42.667591 -83.487213 3,425 268 157 2688
2018-12-11 18:19:30 GMT 42.664661 -83.481659 3,225 294 176 1408
2018-12-11 18:19:26 GMT 42.663589 -83.477509 3,125 283 177 1408
2018-12-11 18:19:22 GMT 42.663208 -83.470001 2,975 268 178 1344
2018-12-11 18:19:15 GMT 42.663391 -83.465759 2,875 267 177 1856
2018-12-11 18:19:11 GMT 42.663803 -83.458328 2,575 267 173 2816
2018-12-11 18:18:58 GMT 42.664261 -83.447090 2,250 268 180 3200
2018-12-11 18:18:47 GMT 42.664566 -83.435410 1,575 268 162 3008
2018-12-11 18:18:34 GMT 42.664940 -83.423599 1,050 268 140 1536
2018-12-11 18:18:27 GMT 42.665150 -83.417145 0 267 115
2018-12-11 18:18:16 GMT 42.665314 -83.411636 0 267 39
We lost coverage of the aircraft here for a total of 61 minutes
2018-12-11 17:16:58 GMT 42.663906 -83.428818 0 258 11 0
2018-12-11 17:16:42 GMT 42.663952 -83.427689 0 267 12 0
2018-12-11 17:16:37 GMT 42.663963 -83.427383 0 267 10 0
2018-12-11 17:16:26 GMT 42.664078 -83.426865 0 191 7 0
2018-12-11 17:16:12 GMT 42.664764 -83.426712 0 239 16 0
2018-12-11 17:16:02 GMT 42.664902 -83.425163 0 267 28 0
2018-12-11 17:15:54 GMT 42.664928 -83.424011 0 267 31 0
2018-12-11 17:15:44 GMT 42.664997 -83.421921 0 267 34 0
2018-12-11 17:15:32 GMT 42.665131 -83.417534 0 267 80 0
2018-12-11 17:15:18 GMT 42.665314 -83.410141 1,000 269 90 -576
2018-12-11 17:15:12 GMT 42.665405 -83.407516 1,050 268 92 -512
2018-12-11 17:15:03 GMT 42.665634 -83.401337 1,125 267 92 -448
2018-12-11 17:14:51 GMT 42.665771 -83.395531 1,225 268 89 -512
2018-12-11 17:14:41 GMT 42.665955 -83.389412 1,325 267 94 -576
2018-12-11 17:14:30 GMT 42.666199 -83.382912 1,425 268 103 -640
2018-12-11 17:14:20 GMT 42.666367 -83.375557 1,525 268 103 -512
2018-12-11 17:14:09 GMT 42.666641 -83.368874 1,625 268 104 -512
2018-12-11 17:13:58 GMT 42.666801 -83.361771 1,725 268 103 -576
2018-12-11 17:13:51 GMT 42.666916 -83.357826 1,800 268 105 -576
2018-12-11 17:13:47 GMT 42.667007 -83.354897 1,850 268 105 -576
2018-12-11 17:13:40 GMT 42.667130 -83.350334 1,900 268 102 -576
2018-12-11 17:13:36 GMT 42.667236 -83.347839 1,950 268 101 -640
2018-12-11 17:13:26 GMT 42.667408 -83.340813 2,050 268 104 -576
2018-12-11 17:13:20 GMT 42.667557 -83.336540 2,100 268 104 -576
2018-12-11 17:13:15 GMT 42.667603 -83.334236 2,150 268 103 -576
2018-12-11 17:13:09 GMT 42.667740 -83.329239 2,225 268 107 -704
2018-12-11 17:13:05 GMT 42.667828 -83.326958 2,250 269 111 -640
2018-12-11 17:12:55 GMT 42.668011 -83.319420 2,375 268 120 -768
2018-12-11 17:12:46 GMT 42.668243 -83.312775 2,475 268 132 -640
2018-12-11 17:12:43 GMT 42.668293 -83.310799 2,500 268 134 -768
2018-12-11 17:12:37 GMT 42.668476 -83.304535 2,600 268 142 -640
2018-12-11 17:12:32 GMT 42.668610 -83.300148 2,650 269 146 -256
2018-12-11 17:12:26 GMT 42.668758 -83.294891 2,675 268 148 -256
2018-12-11 17:12:22 GMT 42.668896 -83.291573 2,700 268 150 -64
2018-12-11 17:12:12 GMT 42.669159 -83.281296 2,725 268 149 -192
2018-12-11 17:12:03 GMT 42.669388 -83.274055 2,725 269 148 -128
2018-12-11 17:11:59 GMT 42.669548 -83.269341 2,750 269 147 -64
2018-12-11 17:11:54 GMT 42.669662 -83.264633 2,750 268 146 -128
2018-12-11 17:11:49 GMT 42.669800 -83.260384 2,750 269 146 -128
2018-12-11 17:11:42 GMT 42.669983 -83.254143 2,775 268 147 -128
2018-12-11 17:11:38 GMT 42.670059 -83.250565 2,775 269 146 -128
2018-12-11 17:11:32 GMT 42.670212 -83.245155 2,800 269 147 -256
2018-12-11 17:11:27 GMT 42.670341 -83.240089 2,800 268 151 -64
2018-12-11 17:11:22 GMT 42.670486 -83.234856 2,825 268 151 -128
2018-12-11 17:11:19 GMT 42.670574 -83.231972 2,825 269 150 -128
2018-12-11 17:11:11 GMT 42.670712 -83.224693 2,850 269 148 -128
2018-12-11 17:11:08 GMT 42.670761 -83.222000 2,850 269 151 -64
2018-12-11 17:10:57 GMT 42.671085 -83.211281 2,875 268 151 -64
2018-12-11 17:10:47 GMT 42.671310 -83.201958 2,900 268 153 0
2018-12-11 17:10:39 GMT 42.671585 -83.194283 2,900 268 162 -192
2018-12-11 17:10:36 GMT 42.671677 -83.190788 2,900 268 167 -192
2018-12-11 17:10:28 GMT 42.671906 -83.182793 2,925 269 171 0
2018-12-11 17:10:24 GMT 42.671925 -83.179665 2,950 273 171 64
2018-12-11 17:10:17 GMT 42.671223 -83.170914 2,925 282 168 0
2018-12-11 17:10:14 GMT 42.670807 -83.168488 2,925 286 165 -64
2018-12-11 17:10:06 GMT 42.668617 -83.160309 3,000 296 166 -896
2018-12-11 17:10:03 GMT 42.667694 -83.157951 3,050 306 168 -896
2018-12-11 17:09:53 GMT 42.662750 -83.149277 3,150 313 171 -960
2018-12-11 17:09:44 GMT 42.657578 -83.143410 3,325 322 173 -960
2018-12-11 17:09:41 GMT 42.656067 -83.141785 3,350 322 174 -1088
2018-12-11 17:09:34 GMT 42.650894 -83.136230 3,500 322 171 -832
2018-12-11 17:09:30 GMT 42.649113 -83.134308 3,525 322 170 -704
2018-12-11 17:09:21 GMT 42.642456 -83.127159 3,700 322 170 -1088
2018-12-11 17:09:09 GMT 42.636154 -83.120377 3,850 322 173 -832
2018-12-11 17:08:59 GMT 42.629150 -83.112885 4,000 322 175 -832
2018-12-11 17:08:48 GMT 42.621647 -83.104927 4,200 322 178 -1152
2018-12-11 17:08:37 GMT 42.615269 -83.098099 4,375 322 184 -896
2018-12-11 17:08:27 GMT 42.608288 -83.090622 4,525 322 185 -960
2018-12-11 17:08:16 GMT 42.601044 -83.082855 4,675 322 185 -1024
2018-12-11 17:08:06 GMT 42.593903 -83.075294 4,875 322 186 -768
2018-12-11 17:07:56 GMT 42.586639 -83.067497 4,975 322 185 -64
2018-12-11 17:07:43 GMT 42.578724 -83.059006 4,975 322 184 0
2018-12-11 17:07:35 GMT 42.571701 -83.051460 4,975 322 185 0
2018-12-11 17:07:23 GMT 42.565521 -83.044846 4,975 322 185 0
2018-12-11 17:07:13 GMT 42.558380 -83.037292 4,975 322 185 0
2018-12-11 17:07:02 GMT 42.550735 -83.029114 4,975 322 185 0
2018-12-11 17:06:52 GMT 42.544369 -83.022278 4,975 322 184 0
2018-12-11 17:06:42 GMT 42.537186 -83.014633 4,975 322 184 -64
2018-12-11 17:06:31 GMT 42.530125 -83.007141 4,975 322 185 0
2018-12-11 17:06:19 GMT 42.522442 -82.998962 4,975 322 187 0
2018-12-11 17:06:10 GMT 42.515717 -82.991783 4,975 322 187 0
2018-12-11 17:05:58 GMT 42.508011 -82.983566 4,975 322 185 0
2018-12-11 17:05:49 GMT 42.501308 -82.976418 4,975 322 185 0
2018-12-11 17:05:38 GMT 42.494339 -82.969002 4,975 322 185 0
2018-12-11 17:05:28 GMT 42.487156 -82.961342 4,975 322 184 0
2018-12-11 17:05:16 GMT 42.480080 -82.953743 4,975 322 184 0
2018-12-11 17:05:05 GMT 42.472866 -82.946075 4,975 322 184 0
2018-12-11 17:04:56 GMT 42.465637 -82.938416 4,975 322 185 0
2018-12-11 17:04:43 GMT 42.457306 -82.929550 4,975 322 184 0
2018-12-11 17:04:33 GMT 42.450893 -82.922829 4,975 323 185 0
2018-12-11 17:04:24 GMT 42.444351 -82.915878 4,975 322 185 0
2018-12-11 17:04:12 GMT 42.436974 -82.908005 4,975 323 185 0
2018-12-11 17:04:03 GMT 42.429703 -82.900398 4,975 322 186 0
2018-12-11 17:03:52 GMT 42.422241 -82.892532 4,975 323 186 0
2018-12-11 17:03:40 GMT 42.415146 -82.885101 4,975 323 186 0
2018-12-11 17:03:31 GMT 42.407913 -82.877548 4,975 323 186 0
2018-12-11 17:03:19 GMT 42.400909 -82.870247 4,975 323 187 0
2018-12-11 17:03:09 GMT 42.393539 -82.862442 4,975 322 187 0
2018-12-11 17:02:56 GMT 42.384659 -82.852707 4,975 322 187 64
2018-12-11 17:02:48 GMT 42.377884 -82.848274 4,975 345 193 0
2018-12-11 17:02:36 GMT 42.368408 -82.844780 4,975 346 193 64
2018-12-11 17:02:26 GMT 42.359650 -82.841705 5,025 346 202 -1024
2018-12-11 17:02:20 GMT 42.353394 -82.839470 5,125 346 235 -960
2018-12-11 17:02:16 GMT 42.349781 -82.838196 5,225 346 210 -1024
2018-12-11 17:02:05 GMT 42.339798 -82.834663 5,375 346 211 -1024
2018-12-11 17:01:55 GMT 42.329819 -82.831108 5,550 346 220 -960
2018-12-11 17:01:43 GMT 42.319153 -82.827301 5,750 346 224 -960
2018-12-11 17:01:34 GMT 42.308395 -82.823563 5,925 346 232 -960
2018-12-11 17:01:21 GMT 42.295826 -82.819160 6,100 346 242 -960
2018-12-11 17:01:12 GMT 42.272690 -82.811073 6,350 346 255 -1024
2018-12-11 17:01:00 GMT 42.272690 -82.811073 6,450 346 257 -960
2018-12-11 17:00:54 GMT 42.264263 -82.808105 6,500 346 257 -1024
2018-12-11 17:00:51 GMT 42.260818 -82.806831 6,725 346 258 -960
2018-12-11 17:00:48 GMT 42.257561 -82.805679 6,675 346 257 -1024
2018-12-11 17:00:40 GMT 42.244156 -82.800957 6,875 346 258 -1024
2018-12-11 17:00:28 GMT 42.233772 -82.797249 7,025 346 257 -960
2018-12-11 17:00:18 GMT 42.224369 -82.793930 7,150 346 256 -960
2018-12-11 17:00:14 GMT 42.217712 -82.791565 7,250 346 255 -1024
2018-12-11 17:00:08 GMT 42.212032 -82.789520 7,400 346 253 -1024
2018-12-11 17:00:04 GMT 42.205994 -82.787415 7,425 346 253 -1024
2018-12-11 16:59:58 GMT 42.199402 -82.785042 7,525 346 253 -1024
2018-12-11 16:59:52 GMT 42.193367 -82.782944 7,600 346 253 -1024
2018-12-11 16:59:48 GMT 42.189423 -82.781548 7,650 346 253 -1024
2018-12-11 16:59:45 GMT 42.184433 -82.779732 7,725 346 254 -1024
2018-12-11 16:59:37 GMT 42.176979 -82.777130 7,850 346 255 -1024
2018-12-11 16:59:34 GMT 42.172417 -82.775528 7,900 346 255 -960
2018-12-11 16:59:26 GMT 42.163376 -82.772369 8,050 346 258 -1024
2018-12-11 16:59:23 GMT 42.160355 -82.771309 8,075 346 259 -1024
2018-12-11 16:59:15 GMT 42.151291 -82.768127 8,200 346 262 -1216
2018-12-11 16:59:11 GMT 42.146851 -82.766563 8,275 346 261 -1088
2018-12-11 16:59:04 GMT 42.138760 -82.763718 8,500 346 262 -1216
2018-12-11 16:59:00 GMT 42.133713 -82.761948 8,500 346 262 -1216
2018-12-11 16:58:54 GMT 42.125305 -82.758987 8,650 346 263 -1216
2018-12-11 16:58:49 GMT 42.115902 -82.755669 8,725 346 263 -1216
2018-12-11 16:58:43 GMT 42.113388 -82.754768 8,850 346 263 -1216
2018-12-11 16:58:39 GMT 42.109360 -82.753334 8,925 346 263 -1216
2018-12-11 16:58:34 GMT 42.102867 -82.751068 9,025 346 262 -1216
2018-12-11 16:58:30 GMT 42.099243 -82.749771 9,075 346 262 -1216
2018-12-11 16:58:24 GMT 42.089859 -82.746468 9,250 346 262 -1216
2018-12-11 16:58:18 GMT 42.079174 -82.742699 9,425 346 262 -1216
2018-12-11 16:58:11 GMT 42.075401 -82.741425 9,500 346 262 -1216
2018-12-11 16:58:08 GMT 42.072563 -82.740402 9,950 346 263 -1152
2018-12-11 16:58:00 GMT 42.063217 -82.737099 9,700 346 264 -1216
2018-12-11 16:57:56 GMT 42.057541 -82.735100 9,800 346 264 -1152
2018-12-11 16:57:50 GMT 42.050079 -82.732483 9,925 346 264 -1152
2018-12-11 16:57:42 GMT 42.036579 -82.727692 10,150 346 263 -1216
2018-12-11 16:57:36 GMT 42.028427 -82.724808 10,275 346 264 -1216
2018-12-11 16:57:23 GMT 42.013641 -82.719620 10,525 346 267 -1216
2018-12-11 16:57:18 GMT 42.011993 -82.719063 10,575 346 268 -1216
2018-12-11 16:57:13 GMT 42.007763 -82.717598 10,750 346 269 -1216
2018-12-11 16:57:05 GMT 41.996635 -82.713638 10,825 346 269 -1216
2018-12-11 16:56:53 GMT 41.983749 -82.709137 11,025 346 268 -1216
2018-12-11 16:56:46 GMT 41.972900 -82.705330 11,225 346 268 -1216
2018-12-11 16:56:43 GMT 41.970612 -82.704506 11,250 346 269 -1216
2018-12-11 16:56:37 GMT 41.962887 -82.701759 11,375 346 268 -1152
2018-12-11 16:56:33 GMT 41.953297 -82.698372 11,525 346 268 -1152
2018-12-11 16:56:23 GMT 41.941238 -82.694221 11,725 346 269 -960
2018-12-11 16:56:15 GMT 41.937515 -82.692841 11,750 346 269 -1024
2018-12-11 16:56:12 GMT 41.934586 -82.691849 11,825 346 269 -192
2018-12-11 16:56:07 GMT 41.927353 -82.689285 11,825 346 268 0
2018-12-11 16:56:01 GMT 41.919434 -82.686539 11,825 346 267 0
2018-12-11 16:55:55 GMT 41.914051 -82.684700 11,825 346 267 0
2018-12-11 16:55:50 GMT 41.907211 -82.682297 11,825 346 268 0
2018-12-11 16:55:46 GMT 41.901672 -82.680420 11,825 346 267 0
2018-12-11 16:55:39 GMT 41.892792 -82.677361 11,825 346 267 0
2018-12-11 16:55:35 GMT 41.889175 -82.676178 11,825 346 267 0
2018-12-11 16:55:30 GMT 41.881989 -82.673744 11,825 346 268 0
2018-12-11 16:55:22 GMT 41.873135 -82.670776 11,825 346 270 0
2018-12-11 16:55:18 GMT 41.869629 -82.669563 11,825 346 270 0
2018-12-11 16:55:14 GMT 41.864090 -82.667686 11,825 346 270 0
2018-12-11 16:55:08 GMT 41.855209 -82.664711 11,825 346 269 0
2018-12-11 16:55:04 GMT 41.850494 -82.663071 11,850 346 269 0
2018-12-11 16:54:58 GMT 41.843765 -82.660629 11,825 345 269 0
2018-12-11 16:54:52 GMT 41.837814 -82.658325 11,825 344 267 64
2018-12-11 16:54:47 GMT 41.830536 -82.655075 11,825 341 266 -576
2018-12-11 16:54:43 GMT 41.826553 -82.653267 11,875 341 266 -1280
2018-12-11 16:54:36 GMT 41.817673 -82.649208 12,050 342 267 -1408
2018-12-11 16:54:32 GMT 41.814476 -82.647720 12,100 342 267 -1472
2018-12-11 16:54:29 GMT 41.809311 -82.645416 12,200 342 268 -1344
2018-12-11 16:54:25 GMT 41.805450 -82.643654 12,300 342 268 -1216
2018-12-11 16:54:22 GMT 41.801926 -82.642029 12,350 342 270 -1344
2018-12-11 16:54:15 GMT 41.792923 -82.638008 12,525 342 278 -1472
2018-12-11 16:54:11 GMT 41.789337 -82.636475 12,600 342 282 -1472
2018-12-11 16:54:04 GMT 41.778305 -82.631561 12,825 342 294 -1536
2018-12-11 16:54:01 GMT 41.775604 -82.630356 12,875 342 299 -1728
2018-12-11 16:53:54 GMT 41.765945 -82.626053 13,075 342 310 -1600
2018-12-11 16:53:50 GMT 41.761276 -82.623993 13,175 342 316 -1664
2018-12-11 16:53:43 GMT 41.751114 -82.619438 13,525 342 328 -1792
2018-12-11 16:53:39 GMT 41.746605 -82.617378 13,475 342 330 -1792
2018-12-11 16:53:33 GMT 41.735733 -82.612503 13,700 342 332 -1728
2018-12-11 16:53:30 GMT 41.730743 -82.610260 13,800 342 333 -1728
2018-12-11 16:53:22 GMT 41.720627 -82.605690 14,050 342 335 -1792
2018-12-11 16:53:19 GMT 41.716370 -82.603767 14,100 342 335 -1792
2018-12-11 16:53:13 GMT 41.707535 -82.599770 14,275 342 336 -1792
2018-12-11 16:53:09 GMT 41.700844 -82.596748 14,400 342 338 -1792
2018-12-11 16:53:00 GMT 41.687531 -82.590683 14,675 342 338 -1792
2018-12-11 16:52:57 GMT 41.684597 -82.589340 14,750 342 337 -1792
2018-12-11 16:52:47 GMT 41.669449 -82.582420 15,025 342 332 -1792
2018-12-11 16:52:40 GMT 41.657547 -82.577049 15,275 342 329 -1792
2018-12-11 16:52:31 GMT 41.645634 -82.571648 15,525 342 328 -1664
2018-12-11 16:52:28 GMT 41.641754 -82.569870 15,600 342 328 -1728
2018-12-11 16:52:18 GMT 41.625477 -82.562508 15,925 342 329 -1728
2018-12-11 16:52:08 GMT 41.611881 -82.556381 16,200 342 330 -1728
2018-12-11 16:52:02 GMT 41.596619 -82.549583 16,500 342 333 -1664
2018-12-11 16:51:57 GMT 41.595867 -82.549225 16,525 342 333 -1664
2018-12-11 16:51:51 GMT 41.581009 -82.542526 16,750 342 337 -832
2018-12-11 16:51:42 GMT 41.566307 -82.535942 16,825 342 338 0
2018-12-11 16:51:35 GMT 41.564865 -82.535301 16,825 342 338 0
2018-12-11 16:51:32 GMT 41.559792 -82.533005 16,825 342 338 0
2018-12-11 16:51:28 GMT 41.553406 -82.530174 16,825 342 339 0
2018-12-11 16:51:24 GMT 41.546707 -82.527122 16,825 342 339 0
2018-12-11 16:51:17 GMT 41.537769 -82.523102 16,825 342 339 0
2018-12-11 16:51:11 GMT 41.521866 -82.515999 16,825 342 339 0
2018-12-11 16:51:06 GMT 41.521866 -82.515999 16,825 342 339 0
2018-12-11 16:51:03 GMT 41.515915 -82.513313 16,825 342 339 0
2018-12-11 16:50:58 GMT 41.509094 -82.510193 16,825 342 337 0
2018-12-11 16:50:52 GMT 41.500389 -82.506302 16,825 342 337 0
2018-12-11 16:50:47 GMT 41.491653 -82.502396 16,825 342 337 0
2018-12-11 16:50:41 GMT 41.484833 -82.499336 16,825 342 337 0
2018-12-11 16:50:35 GMT 41.475761 -82.495255 16,825 342 337 0
2018-12-11 16:50:30 GMT 41.468967 -82.492188 16,825 342 338 0
2018-12-11 16:50:27 GMT 41.461990 -82.489037 16,825 342 338 0
2018-12-11 16:50:24 GMT 41.458694 -82.487602 16,825 342 337 0
2018-12-11 16:50:20 GMT 41.453064 -82.485039 16,825 342 337 0
2018-12-11 16:50:15 GMT 41.444901 -82.481392 16,825 342 337 0
2018-12-11 16:50:12 GMT 41.440613 -82.479485 16,825 342 337 0
2018-12-11 16:50:09 GMT 41.437042 -82.477859 16,825 342 338 0
2018-12-11 16:50:05 GMT 41.429626 -82.474556 16,825 342 338 0
2018-12-11 16:49:58 GMT 41.414593 -82.467789 16,825 342 338 0
2018-12-11 16:49:54 GMT 41.414593 -82.467789 16,825 342 338 0
2018-12-11 16:49:50 GMT 41.407059 -82.464439 16,825 342 338 0
2018-12-11 16:49:47 GMT 41.399464 -82.461014 16,825 342 337 0
2018-12-11 16:49:44 GMT 41.399464 -82.461014 16,825 342 337 0
2018-12-11 16:49:41 GMT 41.394287 -82.458694 16,825 342 337 -64
2018-12-11 16:49:37 GMT 41.389687 -82.456673 16,825 342 337 0
2018-12-11 16:49:33 GMT 41.383171 -82.453705 16,825 342 337 0
2018-12-11 16:49:28 GMT 41.374886 -82.450020 16,825 342 337 0
2018-12-11 16:49:23 GMT 41.366730 -82.446350 16,825 342 337 0
2018-12-11 16:49:16 GMT 41.357849 -82.442383 16,825 342 337 0
2018-12-11 16:49:12 GMT 41.350304 -82.439034 16,825 342 336 0
2018-12-11 16:49:07 GMT 41.344391 -82.436348 16,825 342 336 0
2018-12-11 16:49:03 GMT 41.338200 -82.433601 16,825 342 336 0
2018-12-11 16:48:56 GMT 41.327866 -82.428986 16,825 342 337 0
2018-12-11 16:48:53 GMT 41.324886 -82.427612 16,825 342 337 0
2018-12-11 16:48:48 GMT 41.316193 -82.423706 16,825 342 336 0
2018-12-11 16:48:44 GMT 41.311157 -82.421448 16,825 342 337 0
2018-12-11 16:48:41 GMT 41.305988 -82.419182 16,825 342 336 0
2018-12-11 16:48:38 GMT 41.301846 -82.417313 16,825 342 337 0
2018-12-11 16:48:35 GMT 41.289089 -82.411629 16,825 342 337 0
2018-12-11 16:48:29 GMT 41.289089 -82.411629 16,825 342 337 0
2018-12-11 16:48:24 GMT 41.280804 -82.407883 16,825 342 337 0
2018-12-11 16:48:20 GMT 41.274719 -82.405212 16,825 342 337 0
2018-12-11 16:48:13 GMT 41.256500 -82.397087 16,825 342 338 0
2018-12-11 16:48:03 GMT 41.240440 -82.389908 16,825 342 339 0
2018-12-11 16:47:52 GMT 41.225544 -82.383293 16,825 342 339 0
2018-12-11 16:47:45 GMT 41.224056 -82.382607 16,825 342 339 0
2018-12-11 16:47:42 GMT 41.218098 -82.379982 16,825 342 339 0
2018-12-11 16:47:35 GMT 41.202873 -82.373177 16,825 342 339 0
2018-12-11 16:47:23 GMT 41.188862 -82.366997 16,825 342 340 0
2018-12-11 16:47:18 GMT 41.176338 -82.361382 16,825 342 340 0
2018-12-11 16:47:10 GMT 41.164215 -82.356018 16,825 342 339 0
2018-12-11 16:46:59 GMT 41.147987 -82.348770 16,825 342 339 0
2018-12-11 16:46:49 GMT 41.132034 -82.341675 16,825 342 339 0
2018-12-11 16:46:39 GMT 41.116940 -82.334976 16,825 342 339 0
2018-12-11 16:46:27 GMT 41.107719 -82.330856 16,825 342 339 0
2018-12-11 16:46:23 GMT 41.100037 -82.327454 16,825 342 339 0
2018-12-11 16:46:15 GMT 41.088135 -82.322144 16,825 342 340 0
2018-12-11 16:46:07 GMT 41.077972 -82.317627 16,825 342 340 0
2018-12-11 16:46:04 GMT 41.070946 -82.314499 16,825 342 340 0
2018-12-11 16:45:56 GMT 41.053905 -82.306885 16,825 342 340 0
2018-12-11 16:45:47 GMT 41.040344 -82.300903 16,825 342 340 0
2018-12-11 16:45:41 GMT 41.039009 -82.300331 16,825 342 340 0
2018-12-11 16:45:36 GMT 41.030777 -82.296692 16,825 342 340 0
2018-12-11 16:45:30 GMT 41.022720 -82.293152 16,825 342 340 0
2018-12-11 16:45:26 GMT 41.015213 -82.289917 16,825 343 340 -64
2018-12-11 16:45:22 GMT 40.991806 -82.280357 16,825 343 341 -64
2018-12-11 16:45:15 GMT 40.991806 -82.280357 16,825 347 344 -64
2018-12-11 16:45:04 GMT 40.974792 -82.277222 16,850 359 352 64
2018-12-11 16:44:56 GMT 40.968201 -82.277344 16,825 7 360 64
2018-12-11 16:44:51 GMT 40.961781 -82.278358 16,825 10 363 64
2018-12-11 16:44:43 GMT 40.942154 -82.286926 16,825 23 376 0
2018-12-11 16:44:32 GMT 40.924713 -82.297058 16,825 23 375 0
2018-12-11 16:44:23 GMT 40.915646 -82.302391 16,825 23 375 0
2018-12-11 16:44:17 GMT 40.907406 -82.307198 16,825 23 375 0
2018-12-11 16:44:10 GMT 40.894180 -82.314880 16,825 23 375 0
2018-12-11 16:44:00 GMT 40.880360 -82.322929 16,825 23 375 0
2018-12-11 16:43:52 GMT 40.864811 -82.331978 16,825 23 375 0
2018-12-11 16:43:48 GMT 40.858932 -82.335388 16,825 23 375 0
2018-12-11 16:43:39 GMT 40.845165 -82.343468 16,825 23 373 0
2018-12-11 16:43:35 GMT 40.838837 -82.347153 16,825 23 373 0
2018-12-11 16:43:27 GMT 40.826500 -82.354324 16,825 23 373 0
2018-12-11 16:43:22 GMT 40.818420 -82.359009 16,825 23 372 0
2018-12-11 16:43:16 GMT 40.810345 -82.363693 16,825 23 372 0
2018-12-11 16:43:05 GMT 40.793308 -82.373619 16,825 23 372 0
2018-12-11 16:42:55 GMT 40.776875 -82.383163 16,825 23 373 0
2018-12-11 16:42:49 GMT 40.759964 -82.392944 16,825 23 372 0
2018-12-11 16:42:37 GMT 40.741974 -82.403381 16,825 23 372 0
2018-12-11 16:42:32 GMT 40.739136 -82.405029 16,825 23 372 0
2018-12-11 16:42:26 GMT 40.724945 -82.413269 16,825 23 372 0
2018-12-11 16:42:21 GMT 40.722595 -82.414627 16,825 23 372 0
2018-12-11 16:42:15 GMT 40.707184 -82.423553 16,825 23 372 0
2018-12-11 16:42:07 GMT 40.693268 -82.431602 16,825 23 372 0
2018-12-11 16:41:53 GMT 40.672577 -82.443542 16,825 23 372 0
2018-12-11 16:41:48 GMT 40.668964 -82.445648 16,825 23 372 0
2018-12-11 16:41:41 GMT 40.641220 -82.461693 16,825 23 372 0
2018-12-11 16:41:33 GMT 40.641220 -82.461693 16,825 23 371 0
2018-12-11 16:41:29 GMT 40.639034 -82.462944 16,825 23 371 0
2018-12-11 16:41:24 GMT 40.625656 -82.470703 16,825 23 371 0
2018-12-11 16:41:17 GMT 40.621536 -82.473083 16,825 23 371 0
2018-12-11 16:41:14 GMT 40.616180 -82.476135 16,825 23 371 0
2018-12-11 16:41:07 GMT 40.605656 -82.482231 16,825 23 371 0
2018-12-11 16:41:01 GMT 40.596809 -82.487350 16,825 23 372 0
2018-12-11 16:40:58 GMT 40.590851 -82.490784 16,825 23 371 -64
2018-12-11 16:40:51 GMT 40.580887 -82.496460 16,825 23 371 0
2018-12-11 16:40:47 GMT 40.574615 -82.500122 16,825 23 371 0
2018-12-11 16:40:40 GMT 40.561848 -82.507446 16,825 23 371 0
2018-12-11 16:40:36 GMT 40.557472 -82.509949 16,825 23 371 0
2018-12-11 16:40:28 GMT 40.544624 -82.517372 16,825 23 370 0
2018-12-11 16:40:25 GMT 40.540527 -82.519684 16,825 23 370 0
2018-12-11 16:40:15 GMT 40.524513 -82.528862 16,825 23 368 0
2018-12-11 16:40:10 GMT 40.510941 -82.536682 16,825 23 367 0
2018-12-11 16:40:06 GMT 40.509247 -82.537659 16,825 23 367 0
2018-12-11 16:40:01 GMT 40.495560 -82.545525 16,825 23 367 0
2018-12-11 16:39:53 GMT 40.490253 -82.548584 16,825 23 367 0
2018-12-11 16:39:49 GMT 40.479313 -82.554955 16,825 23 369 0
2018-12-11 16:39:42 GMT 40.471817 -82.559319 16,825 24 370 128
2018-12-11 16:39:31 GMT 40.455849 -82.568810 16,800 24 371 256
2018-12-11 16:39:22 GMT 40.442116 -82.577110 16,775 25 372 -128
2018-12-11 16:39:19 GMT 40.437607 -82.579956 16,775 25 373 -192
2018-12-11 16:39:09 GMT 40.420517 -82.591469 16,775 30 376 64
2018-12-11 16:39:01 GMT 40.409855 -82.601273 16,775 38 383 -64
2018-12-11 16:38:58 GMT 40.404831 -82.606812 16,775 41 386 0
2018-12-11 16:38:54 GMT 40.395996 -82.617004 16,775 41 384 0
2018-12-11 16:38:45 GMT 40.384003 -82.630859 16,775 41 386 0
2018-12-11 16:38:39 GMT 40.381180 -82.634102 16,775 41 386 0
2018-12-11 16:38:34 GMT 40.374893 -82.641418 16,775 41 386 0
2018-12-11 16:38:30 GMT 40.367386 -82.650085 16,775 41 386 0
2018-12-11 16:38:23 GMT 40.359207 -82.659569 16,775 41 384 0
2018-12-11 16:38:18 GMT 40.353340 -82.666313 16,775 41 384 0
2018-12-11 16:38:12 GMT 40.343857 -82.677246 16,775 41 384 0
2018-12-11 16:38:07 GMT 40.337769 -82.684326 16,775 41 383 0
2018-12-11 16:38:00 GMT 40.327652 -82.696045 16,775 41 383 0
2018-12-11 16:37:53 GMT 40.314190 -82.711571 16,775 41 383 0
2018-12-11 16:37:48 GMT 40.311401 -82.714783 16,775 41 383 0
2018-12-11 16:37:42 GMT 40.298126 -82.730164 16,775 41 383 0
2018-12-11 16:37:37 GMT 40.296249 -82.732300 16,775 41 383 0
2018-12-11 16:37:25 GMT 40.282379 -82.748352 16,775 41 386 0
2018-12-11 16:37:20 GMT 40.270477 -82.762070 16,775 41 386 0
2018-12-11 16:37:14 GMT 40.267639 -82.765320 16,775 41 385 0
2018-12-11 16:37:04 GMT 40.253357 -82.781860 16,775 41 381 0
2018-12-11 16:36:54 GMT 40.227402 -82.812073 16,775 41 382 0
2018-12-11 16:36:48 GMT 40.227402 -82.812073 16,775 41 394 0
2018-12-11 16:36:43 GMT 40.225368 -82.814445 16,775 41 390 64
2018-12-11 16:36:38 GMT 40.213715 -82.827881 16,775 41 393 0
2018-12-11 16:36:32 GMT 40.210144 -82.831909 16,775 41 386 0
2018-12-11 16:36:27 GMT 40.198601 -82.845093 16,775 41 386 0
2018-12-11 16:36:21 GMT 40.196228 -82.847778 16,775 41 367 192
2018-12-11 16:36:16 GMT 40.186249 -82.859192 16,700 41 355 1664
2018-12-11 16:36:11 GMT 40.182915 -82.863007 16,675 41 355 1664
2018-12-11 16:36:06 GMT 40.173157 -82.874146 16,350 41 342 3008
2018-12-11 16:36:02 GMT 40.172531 -82.874870 16,325 41 342 3008
2018-12-11 16:35:57 GMT 40.166290 -82.882080 16,025 41 337 3584
2018-12-11 16:35:48 GMT 40.156265 -82.893616 15,450 41 334 4544
2018-12-11 16:35:45 GMT 40.153061 -82.897339 15,225 41 334 4544
2018-12-11 16:35:40 GMT 40.147114 -82.904205 14,850 41 334 4608
2018-12-11 16:35:37 GMT 40.144135 -82.907700 14,650 41 334 4608
2018-12-11 16:35:34 GMT 40.139759 -82.912819 14,400 41 333 4544
2018-12-11 16:35:30 GMT 40.135571 -82.917625 14,075 41 333 4608
2018-12-11 16:35:27 GMT 40.132278 -82.921509 13,850 41 332 4672
2018-12-11 16:35:20 GMT 40.123123 -82.932190 13,250 41 330 4544
2018-12-11 16:35:15 GMT 40.118904 -82.937103 12,975 41 330 4608
2018-12-11 16:35:08 GMT 40.110992 -82.946404 12,425 41 327 4544
2018-12-11 16:35:05 GMT 40.106781 -82.951233 12,175 41 326 4608
2018-12-11 16:35:00 GMT 40.100376 -82.958702 11,700 41 323 4864
2018-12-11 16:34:57 GMT 40.099075 -82.960258 11,625 41 323 4992
2018-12-11 16:34:54 GMT 40.095024 -82.964882 11,325 41 321 4992
2018-12-11 16:34:48 GMT 40.087234 -82.973450 10,750 39 318 4864
2018-12-11 16:34:44 GMT 40.083244 -82.977615 10,450 38 314 5056
2018-12-11 16:34:37 GMT 40.075287 -82.985168 9,875 32 307 4608
2018-12-11 16:34:34 GMT 40.070801 -82.988586 9,625 26 300 4480
2018-12-11 16:34:27 GMT 40.061966 -82.993225 9,075 17 288 4672
2018-12-11 16:34:22 GMT 40.056885 -82.995300 8,775 16 284 4544
2018-12-11 16:34:16 GMT 40.048874 -82.998169 8,200 11 273 4480
2018-12-11 16:34:13 GMT 40.043930 -82.999329 7,975 7 268 4736
2018-12-11 16:34:06 GMT 40.035736 -82.999207 7,475 353 252 4288
2018-12-11 16:34:01 GMT 40.031292 -82.998085 7,175 346 244 4032
2018-12-11 16:33:55 GMT 40.025070 -82.995117 6,750 334 229 4416
2018-12-11 16:33:51 GMT 40.021469 -82.992470 6,250 326 221 4800
2018-12-11 16:33:44 GMT 40.016163 -82.986603 5,900 312 210 4160
2018-12-11 16:33:40 GMT 40.013790 -82.982674 5,625 305 203 4352
2018-12-11 16:33:34 GMT 40.010204 -82.972366 4,600 278 184 4224
2018-12-11 16:33:30 GMT 40.009506 -82.968124 4,600 278 184 4224
2018-12-11 16:33:23 GMT 40.009041 -82.963882 4,325 278 183 4160
2018-12-11 16:33:20 GMT 40.008682 -82.960083 4,075 278 180 3776
2018-12-11 16:33:12 GMT 40.007923 -82.952393 3,650 278 169 3264
2018-12-11 16:33:08 GMT 40.007492 -82.948120 3,400 278 161 2752
2018-12-11 16:33:01 GMT 40.006851 -82.941895 3,125 278 147 2496
2018-12-11 16:32:57 GMT 40.006393 -82.937683 2,925 278 145 2688
2018-12-11 16:32:50 GMT 40.005875 -82.932732 2,650 278 148 2880
2018-12-11 16:32:47 GMT 40.005596 -82.929672 2,500 278 154 2560
2018-12-11 16:32:44 GMT 40.005318 -82.927116 2,350 278 154 2560
2018-12-11 16:32:40 GMT 40.004929 -82.922974 2,150 278 157 2752
2018-12-11 16:32:34 GMT 40.004333 -82.916748 1,875 277 167 3072
2018-12-11 16:32:30 GMT 40.003967 -82.912819 1,675 277 170 3328
2018-12-11 16:32:22 GMT 40.003281 -82.905273 1,250 277 164 3072
2018-12-11 16:32:19 GMT 40.003052 -82.902344 1,100 277 157 3008
2018-12-11 16:31:52 GMT 40.001850 -82.883888 0 272 27
2018-12-11 16:31:29 GMT 40.001850 -82.883484 0 275 8
2018-12-11 16:31:25 GMT 40.001850 -82.883270 0 219 11
2018-12-11 16:31:14 GMT 40.002377 -82.883118 0 180 11
2018-12-11 16:30:49 GMT 40.002789 -82.883240 0 135 8
2018-12-11 16:30:43 GMT 40.002949 -82.883545 0 98 10
2018-12-11 16:30:32 GMT 40.002983 -82.884125 0 95 10
2018-12-11 16:30:17 GMT 40.003048 -82.885155 0 95 13
2018-12-11 16:30:07 GMT 40.003082 -82.885857 0 92 15
2018-12-11 16:30:00 GMT 40.003109 -82.886520 0 95 15
2018-12-11 16:29:45 GMT 40.003201 -82.887817 0 92 13
2018-12-11 16:29:31 GMT 40.003258 -82.888947 0 95 15
2018-12-11 16:29:07 GMT 40.003372 -82.890923 0 95 15
2018-12-11 16:28:49 GMT 40.003456 -82.892296 0 95 13
2018-12-11 16:28:45 GMT 40.003479 -82.892639 0 92 13
2018-12-11 16:28:31 GMT 40.003525 -82.893578 0 95 13
2018-12-11 16:28:25 GMT 40.003559 -82.894142 0 95 12
We lost coverage of the aircraft here for a total of 123 minutes
2018-12-11 14:25:28 GMT 40.006565 -82.901321 0 182 0 0
2018-12-11 14:24:46 GMT 40.006573 -82.901321 0 182 0 0
2018-12-11 14:24:36 GMT 40.006577 -82.901321 0 182 0 0
2018-12-11 14:24:13 GMT 40.006573 -82.901321 0 182 0 0
2018-12-11 14:21:02 GMT 40.006565 -82.901321 0 182 0 0
2018-12-11 14:20:17 GMT 40.006565 -82.901321 0 182 0 0
2018-12-11 14:19:13 GMT 40.006584 -82.901321 0 0 0
2018-12-11 14:18:57 GMT 40.006588 -82.901321 0 0 0
2018-12-11 14:18:32 GMT 40.006577 -82.901321 0 0 0
2018-12-11 14:18:18 GMT 40.006554 -82.901306 0 0 0

Making use of Plane Finder data

You are free to use the raw flight data, aircraft information and images provided in this report for your own purposes provided the data is correctly attributed to Plane Finder. We ask that you please credit Plane Finder and link to planefinder.net in close proximity to the content.

Optionally one of the following logos (no smaller then 150x24px) can be used and must link to planefinder.net

Embedding the Plane Finder map

You are welcome to embed the Plane Finder playback map on your website to offer visitors a more interactive experience. We suggest using the following HTML code:

<iframe src="//planefinder.net/data/report/1I515-N515QS-7700-squawk-2018-12-11/map" width="800" height="600" seamless="seamless"></iframe>

Where our data comes from

Plane Finder has a global network of data feeds and antenna radars that receive data broadcast directly from aircraft. The primary technologies used are ADS-B and MLAT. We also show feeds from the FAA and a FLARM glider feed.

Click here to find out more about the Plane Finder network.

How we collect our data